createdAt,value
2019-03-21T00:00:49.813Z,1027.97
2019-03-21T00:01:49.808Z,1027.99
2019-03-21T00:02:49.824Z,1028.00
2019-03-21T00:03:49.843Z,1027.99
2019-03-21T00:04:49.861Z,1028.02
2019-03-21T00:05:49.879Z,1028.03
2019-03-21T00:06:49.896Z,1028.08
2019-03-21T00:07:49.933Z,1028.08
2019-03-21T00:08:50.015Z,1028.14
2019-03-21T00:09:49.992Z,1028.16
2019-03-21T00:10:49.992Z,1028.17
2019-03-21T00:11:50.061Z,1028.16
2019-03-21T00:12:50.064Z,1028.15
2019-03-21T00:13:50.090Z,1028.09
2019-03-21T00:14:50.085Z,1028.08
2019-03-21T00:15:50.060Z,1028.11
2019-03-21T00:16:50.074Z,1028.09
2019-03-21T00:17:50.091Z,1028.08
2019-03-21T00:18:50.112Z,1028.09
2019-03-21T00:19:50.124Z,1028.08
2019-03-21T00:20:50.143Z,1028.07
2019-03-21T00:21:50.160Z,1028.08
2019-03-21T00:22:50.177Z,1028.08
2019-03-21T00:23:50.194Z,1028.04
2019-03-21T00:24:50.214Z,1028.05
2019-03-21T00:25:50.240Z,1028.06
2019-03-21T00:26:50.249Z,1028.03
2019-03-21T00:27:50.266Z,1028.06
2019-03-21T00:28:50.283Z,1028.03
2019-03-21T00:29:50.302Z,1028.04
2019-03-21T00:30:50.319Z,1028.08
2019-03-21T00:31:50.336Z,1028.08
2019-03-21T00:32:50.353Z,1028.05
2019-03-21T00:33:50.373Z,1028.05
2019-03-21T00:34:50.391Z,1028.07
2019-03-21T00:35:50.409Z,1028.04
2019-03-21T00:36:50.429Z,1028.03
2019-03-21T00:37:50.440Z,1028.02
2019-03-21T00:38:50.460Z,1028.03
2019-03-21T00:39:50.480Z,1028.07
2019-03-21T00:40:50.498Z,1028.09
2019-03-21T00:41:50.513Z,1028.08
2019-03-21T00:42:50.529Z,1028.08
2019-03-21T00:43:50.548Z,1028.08
2019-03-21T00:44:50.568Z,1028.07
2019-03-21T00:45:50.585Z,1028.08
2019-03-21T00:46:50.600Z,1028.05
2019-03-21T00:47:50.619Z,1028.03
2019-03-21T00:48:50.637Z,1028.06
2019-03-21T00:49:50.655Z,1028.11
2019-03-21T00:50:50.672Z,1028.10
2019-03-21T00:51:50.691Z,1028.09
2019-03-21T00:52:50.707Z,1028.07
2019-03-21T00:53:50.724Z,1028.08
2019-03-21T00:54:50.742Z,1028.06
2019-03-21T00:55:50.761Z,1028.06
2019-03-21T00:56:50.778Z,1028.09
2019-03-21T00:57:50.800Z,1028.07
2019-03-21T00:58:50.810Z,1028.10
2019-03-21T00:59:50.831Z,1028.06
2019-03-21T01:00:50.848Z,1028.05
2019-03-21T01:01:50.866Z,1028.06
2019-03-21T01:02:50.882Z,1028.05
2019-03-21T01:03:50.905Z,1028.09
2019-03-21T01:04:50.920Z,1028.04
2019-03-21T01:05:50.940Z,1028.05
2019-03-21T01:06:50.954Z,1028.05
2019-03-21T01:07:50.972Z,1028.09
2019-03-21T01:08:50.990Z,1028.03
2019-03-21T01:09:51.009Z,1028.04
2019-03-21T01:10:51.024Z,1028.01
2019-03-21T01:11:51.042Z,1028.02
2019-03-21T01:12:51.062Z,1028.00
2019-03-21T01:13:51.079Z,1027.95
2019-03-21T01:14:51.102Z,1027.89
2019-03-21T01:15:51.112Z,1027.91
2019-03-21T01:16:51.130Z,1027.94
2019-03-21T01:17:51.148Z,1027.96
2019-03-21T01:18:51.165Z,1027.91
2019-03-21T01:19:51.184Z,1027.95
2019-03-21T01:20:51.202Z,1027.97
2019-03-21T01:21:51.219Z,1027.96
2019-03-21T01:22:51.235Z,1027.97
2019-03-21T01:23:51.256Z,1027.98
2019-03-21T01:24:51.272Z,1027.96
2019-03-21T01:25:51.289Z,1028.00
2019-03-21T01:26:51.306Z,1027.98
2019-03-21T01:27:51.324Z,1027.97
2019-03-21T01:28:51.344Z,1027.97
2019-03-21T01:29:51.359Z,1027.98
2019-03-21T01:30:51.376Z,1027.95
2019-03-21T01:31:51.393Z,1027.96
2019-03-21T01:32:51.411Z,1027.96
2019-03-21T01:33:51.428Z,1028.00
2019-03-21T01:34:51.447Z,1027.99
2019-03-21T01:35:51.464Z,1027.98
2019-03-21T01:36:51.481Z,1027.98
2019-03-21T01:37:51.497Z,1027.96
2019-03-21T01:38:51.570Z,1027.92
2019-03-21T01:39:51.534Z,1027.91
2019-03-21T01:40:51.557Z,1027.90
2019-03-21T01:41:51.570Z,1027.88
2019-03-21T01:42:51.587Z,1027.85
2019-03-21T01:43:51.605Z,1027.84
2019-03-21T01:44:51.625Z,1027.83
2019-03-21T01:45:51.638Z,1027.82
2019-03-21T01:46:51.655Z,1027.79
2019-03-21T01:47:51.674Z,1027.77
2019-03-21T01:48:51.690Z,1027.76
2019-03-21T01:49:51.710Z,1027.72
2019-03-21T01:50:51.729Z,1027.70
2019-03-21T01:51:51.748Z,1027.73
2019-03-21T01:52:51.762Z,1027.77
2019-03-21T01:53:51.799Z,1027.76
2019-03-21T01:54:51.871Z,1027.76
2019-03-21T01:55:51.856Z,1027.74
2019-03-21T01:56:51.873Z,1027.77
2019-03-21T01:57:51.932Z,1027.82
2019-03-21T01:58:51.929Z,1027.80
2019-03-21T01:59:51.920Z,1027.81
2019-03-21T02:00:51.925Z,1027.82
2019-03-21T02:01:51.934Z,1027.76
2019-03-21T02:02:51.936Z,1027.77
2019-03-21T02:03:51.952Z,1027.78
2019-03-21T02:04:51.972Z,1027.77
2019-03-21T02:05:51.990Z,1027.69
2019-03-21T02:06:52.007Z,1027.65
2019-03-21T02:07:52.023Z,1027.66
2019-03-21T02:08:52.041Z,1027.66
2019-03-21T02:09:52.060Z,1027.63
2019-03-21T02:10:52.074Z,1027.67
2019-03-21T02:11:52.095Z,1027.62
2019-03-21T02:12:52.110Z,1027.69
2019-03-21T02:13:52.130Z,1027.70
2019-03-21T02:14:52.568Z,1027.68
2019-03-21T02:15:52.166Z,1027.67
2019-03-21T02:16:52.179Z,1027.62
2019-03-21T02:17:52.200Z,1027.64
2019-03-21T02:18:52.216Z,1027.59
2019-03-21T02:19:52.233Z,1027.60
2019-03-21T02:20:52.252Z,1027.61
2019-03-21T02:21:52.266Z,1027.61
2019-03-21T02:22:52.285Z,1027.58
2019-03-21T02:23:52.303Z,1027.61
2019-03-21T02:24:52.320Z,1027.62
2019-03-21T02:25:52.338Z,1027.62
2019-03-21T02:26:52.357Z,1027.62
2019-03-21T02:27:52.373Z,1027.65
2019-03-21T02:28:52.391Z,1027.67
2019-03-21T02:29:52.413Z,1027.63
2019-03-21T02:30:52.430Z,1027.63
2019-03-21T02:31:52.445Z,1027.62
2019-03-21T02:32:52.462Z,1027.60
2019-03-21T02:33:52.486Z,1027.58
2019-03-21T02:34:52.494Z,1027.55
2019-03-21T02:35:52.514Z,1027.57
2019-03-21T02:36:52.533Z,1027.51
2019-03-21T02:37:52.548Z,1027.55
2019-03-21T02:38:52.565Z,1027.50
2019-03-21T02:39:59.449Z,1027.52
2019-03-21T02:40:52.603Z,1027.48
2019-03-21T02:41:52.624Z,1027.50
2019-03-21T02:42:52.635Z,1027.46
2019-03-21T02:43:52.651Z,1027.44
2019-03-21T02:45:07.306Z,1027.44
2019-03-21T02:45:52.693Z,1027.47
2019-03-21T02:46:52.710Z,1027.48
2019-03-21T02:47:52.725Z,1027.48
2019-03-21T02:48:52.743Z,1027.49
2019-03-21T02:49:52.758Z,1027.53
2019-03-21T02:50:52.776Z,1027.49
2019-03-21T02:51:52.791Z,1027.49
2019-03-21T02:52:52.809Z,1027.51
2019-03-21T02:53:52.828Z,1027.56
2019-03-21T02:54:52.846Z,1027.54
2019-03-21T02:55:52.865Z,1027.49
2019-03-21T02:56:52.879Z,1027.51
2019-03-21T02:57:52.900Z,1027.48
2019-03-21T02:58:52.915Z,1027.52
2019-03-21T02:59:52.933Z,1027.48
2019-03-21T03:00:52.950Z,1027.50
2019-03-21T03:01:52.971Z,1027.50
2019-03-21T03:02:52.987Z,1027.52
2019-03-21T03:03:53.004Z,1027.53
2019-03-21T03:04:53.020Z,1027.54
2019-03-21T03:05:53.039Z,1027.52
2019-03-21T03:06:53.056Z,1027.56
2019-03-21T03:07:53.073Z,1027.59
2019-03-21T03:08:53.094Z,1027.59
2019-03-21T03:09:53.110Z,1027.56
2019-03-21T03:10:53.124Z,1027.52
2019-03-21T03:11:53.145Z,1027.56
2019-03-21T03:12:53.163Z,1027.54
2019-03-21T03:13:53.179Z,1027.55
2019-03-21T03:14:53.196Z,1027.53
2019-03-21T03:15:53.218Z,1027.52
2019-03-21T03:16:53.230Z,1027.53
2019-03-21T03:17:53.248Z,1027.54
2019-03-21T03:18:53.265Z,1027.49
2019-03-21T03:19:53.287Z,1027.51
2019-03-21T03:20:53.306Z,1027.55
2019-03-21T03:21:53.319Z,1027.56
2019-03-21T03:22:53.339Z,1027.61
2019-03-21T03:23:53.365Z,1027.56
2019-03-21T03:24:53.371Z,1027.60
2019-03-21T03:25:53.395Z,1027.57
2019-03-21T03:26:53.406Z,1027.55
2019-03-21T03:27:53.428Z,1027.58
2019-03-21T03:28:53.442Z,1027.62
2019-03-21T03:29:53.460Z,1027.64
2019-03-21T03:30:53.498Z,1027.66
2019-03-21T03:31:53.689Z,1027.66
2019-03-21T03:32:53.516Z,1027.67
2019-03-21T03:33:53.530Z,1027.68
2019-03-21T03:34:53.547Z,1027.66
2019-03-21T03:35:53.566Z,1027.67
2019-03-21T03:36:53.580Z,1027.64
2019-03-21T03:37:53.604Z,1027.66
2019-03-21T03:38:53.619Z,1027.68
2019-03-21T03:39:53.633Z,1027.69
2019-03-21T03:40:53.685Z,1027.67
2019-03-21T03:41:53.735Z,1027.66
2019-03-21T03:42:53.772Z,1027.68
2019-03-21T03:43:53.729Z,1027.67
2019-03-21T03:44:53.790Z,1027.71
2019-03-21T03:45:53.790Z,1027.68
2019-03-21T03:46:53.794Z,1027.69
2019-03-21T03:47:53.802Z,1027.70
2019-03-21T03:48:53.803Z,1027.68
2019-03-21T03:49:53.815Z,1027.66
2019-03-21T03:50:53.916Z,1027.66
2019-03-21T03:51:53.844Z,1027.65
2019-03-21T03:52:53.862Z,1027.67
2019-03-21T03:53:53.881Z,1027.62
2019-03-21T03:54:53.896Z,1027.65
2019-03-21T03:55:53.927Z,1027.65
2019-03-21T03:56:53.931Z,1027.61
2019-03-21T03:57:53.955Z,1027.64
2019-03-21T03:58:53.972Z,1027.61
2019-03-21T03:59:53.989Z,1027.65
2019-03-21T04:00:54.002Z,1027.66
2019-03-21T04:01:54.022Z,1027.64
2019-03-21T04:02:54.037Z,1027.69
2019-03-21T04:03:54.058Z,1027.71
2019-03-21T04:04:54.074Z,1027.69
2019-03-21T04:05:54.402Z,1027.73
2019-03-21T04:06:54.106Z,1027.74
2019-03-21T04:07:54.126Z,1027.72
2019-03-21T04:08:54.145Z,1027.73
2019-03-21T04:09:54.161Z,1027.72
2019-03-21T04:10:54.182Z,1027.72
2019-03-21T04:11:54.196Z,1027.72
2019-03-21T04:12:54.219Z,1027.74
2019-03-21T04:13:54.232Z,1027.74
2019-03-21T04:14:54.248Z,1027.68
2019-03-21T04:15:54.384Z,1027.74
2019-03-21T04:16:54.284Z,1027.71
2019-03-21T04:17:54.303Z,1027.75
2019-03-21T04:18:54.322Z,1027.70
2019-03-21T04:19:54.334Z,1027.73
2019-03-21T04:20:54.387Z,1027.74
2019-03-21T04:21:54.376Z,1027.72
2019-03-21T04:22:54.390Z,1027.76
2019-03-21T04:23:54.410Z,1027.73
2019-03-21T04:24:54.428Z,1027.72
2019-03-21T04:25:54.452Z,1027.75
2019-03-21T04:26:54.469Z,1027.76
2019-03-21T04:27:54.478Z,1027.73
2019-03-21T04:28:54.506Z,1027.77
2019-03-21T04:29:54.512Z,1027.76
2019-03-21T04:30:54.536Z,1027.73
2019-03-21T04:31:54.547Z,1027.74
2019-03-21T04:32:54.565Z,1027.71
2019-03-21T04:33:54.588Z,1027.71
2019-03-21T04:34:54.599Z,1027.75
2019-03-21T04:35:54.620Z,1027.76
2019-03-21T04:36:54.634Z,1027.77
2019-03-21T04:37:54.654Z,1027.77
2019-03-21T04:38:54.670Z,1027.79
2019-03-21T04:39:54.692Z,1027.78
2019-03-21T04:40:54.705Z,1027.79
2019-03-21T04:41:54.724Z,1027.81
2019-03-21T04:42:54.740Z,1027.84
2019-03-21T04:43:54.759Z,1027.78
2019-03-21T04:44:54.775Z,1027.79
2019-03-21T04:46:02.903Z,1027.81
2019-03-21T04:46:54.811Z,1027.75
2019-03-21T04:47:54.828Z,1027.78
2019-03-21T04:48:54.846Z,1027.77
2019-03-21T04:49:54.865Z,1027.78
2019-03-21T04:50:54.881Z,1027.81
2019-03-21T04:51:54.898Z,1027.79
2019-03-21T04:52:54.916Z,1027.81
2019-03-21T04:53:54.934Z,1027.83
2019-03-21T04:54:54.952Z,1027.79
2019-03-21T04:55:54.970Z,1027.80
2019-03-21T04:56:54.986Z,1027.86
2019-03-21T04:57:55.007Z,1027.87
2019-03-21T04:58:55.019Z,1027.88
2019-03-21T04:59:55.051Z,1027.86
2019-03-21T05:00:55.055Z,1027.86
2019-03-21T05:01:55.073Z,1027.85
2019-03-21T05:02:55.091Z,1027.81
2019-03-21T05:03:55.109Z,1027.77
2019-03-21T05:04:55.127Z,1027.75
2019-03-21T05:05:55.143Z,1027.78
2019-03-21T05:06:55.160Z,1027.81
2019-03-21T05:07:55.180Z,1027.78
2019-03-21T05:08:55.196Z,1027.79
2019-03-21T05:09:55.214Z,1027.85
2019-03-21T05:10:55.231Z,1027.86
2019-03-21T05:11:55.248Z,1027.88
2019-03-21T05:12:55.263Z,1027.89
2019-03-21T05:13:55.285Z,1027.87
2019-03-21T05:14:55.301Z,1027.92
2019-03-21T05:15:55.318Z,1027.90
2019-03-21T05:16:55.340Z,1027.90
2019-03-21T05:17:55.355Z,1027.91
2019-03-21T05:18:55.371Z,1027.92
2019-03-21T05:19:55.391Z,1027.90
2019-03-21T05:20:55.406Z,1027.91
2019-03-21T05:21:55.424Z,1027.86
2019-03-21T05:22:55.440Z,1027.88
2019-03-21T05:23:55.458Z,1027.85
2019-03-21T05:24:55.476Z,1027.88
2019-03-21T05:25:55.493Z,1027.87
2019-03-21T05:26:55.520Z,1027.89
2019-03-21T05:27:55.596Z,1027.87
2019-03-21T05:28:55.604Z,1027.89
2019-03-21T05:29:55.596Z,1027.87
2019-03-21T05:30:55.613Z,1027.85
2019-03-21T05:31:55.661Z,1027.82
2019-03-21T05:32:55.704Z,1027.81
2019-03-21T05:33:55.685Z,1027.82
2019-03-21T05:34:55.666Z,1027.78
2019-03-21T05:35:55.669Z,1027.85
2019-03-21T05:36:55.687Z,1027.85
2019-03-21T05:37:55.705Z,1027.83
2019-03-21T05:38:55.723Z,1027.80
2019-03-21T05:39:55.741Z,1027.86
2019-03-21T05:40:55.760Z,1027.85
2019-03-21T05:41:55.779Z,1027.89
2019-03-21T05:42:55.794Z,1027.84
2019-03-21T05:43:55.811Z,1027.88
2019-03-21T05:44:55.829Z,1027.89
2019-03-21T05:45:55.845Z,1027.88
2019-03-21T05:46:55.865Z,1027.90
2019-03-21T05:47:55.887Z,1027.94
2019-03-21T05:48:55.899Z,1027.93
2019-03-21T05:49:55.917Z,1027.91
2019-03-21T05:50:55.934Z,1027.91
2019-03-21T05:51:55.952Z,1027.95
2019-03-21T05:52:55.970Z,1027.95
2019-03-21T05:53:55.988Z,1027.97
2019-03-21T05:54:56.005Z,1027.95
2019-03-21T05:55:56.023Z,1027.97
2019-03-21T05:56:56.041Z,1027.97
2019-03-21T05:57:56.060Z,1027.96
2019-03-21T05:58:56.074Z,1028.00
2019-03-21T05:59:56.094Z,1028.04
2019-03-21T06:00:56.115Z,1028.02
2019-03-21T06:01:56.129Z,1028.03
2019-03-21T06:02:56.153Z,1028.03
2019-03-21T06:03:56.165Z,1028.03
2019-03-21T06:04:56.183Z,1028.06
2019-03-21T06:05:56.206Z,1028.08
2019-03-21T06:06:56.217Z,1028.09
2019-03-21T06:07:56.238Z,1028.06
2019-03-21T06:08:56.256Z,1028.06
2019-03-21T06:09:56.271Z,1028.10
2019-03-21T06:10:56.290Z,1028.06
2019-03-21T06:11:56.306Z,1028.06
2019-03-21T06:12:56.324Z,1028.05
2019-03-21T06:13:56.342Z,1028.04
2019-03-21T06:14:56.361Z,1028.08
2019-03-21T06:15:56.381Z,1028.09
2019-03-21T06:16:56.396Z,1028.13
2019-03-21T06:17:56.416Z,1028.12
2019-03-21T06:18:56.430Z,1028.13
2019-03-21T06:19:56.450Z,1028.17
2019-03-21T06:20:56.467Z,1028.15
2019-03-21T06:21:56.493Z,1028.19
2019-03-21T06:22:56.502Z,1028.22
2019-03-21T06:23:56.522Z,1028.26
2019-03-21T06:24:56.538Z,1028.22
2019-03-21T06:25:56.556Z,1028.25
2019-03-21T06:26:56.574Z,1028.26
2019-03-21T06:27:56.593Z,1028.23
2019-03-21T06:28:56.609Z,1028.24
2019-03-21T06:29:56.632Z,1028.26
2019-03-21T06:30:56.645Z,1028.26
2019-03-21T06:31:56.665Z,1028.25
2019-03-21T06:32:56.684Z,1028.24
2019-03-21T06:33:56.707Z,1028.25
2019-03-21T06:34:56.717Z,1028.29
2019-03-21T06:35:56.735Z,1028.26
2019-03-21T06:36:56.753Z,1028.31
2019-03-21T06:37:56.771Z,1028.30
2019-03-21T06:38:56.790Z,1028.32
2019-03-21T06:39:56.814Z,1028.32
2019-03-21T06:40:56.825Z,1028.34
2019-03-21T06:41:56.846Z,1028.35
2019-03-21T06:42:56.861Z,1028.34
2019-03-21T06:43:56.881Z,1028.39
2019-03-21T06:44:56.902Z,1028.35
2019-03-21T06:45:56.915Z,1028.39
2019-03-21T06:46:56.934Z,1028.40
2019-03-21T06:47:56.954Z,1028.35
2019-03-21T06:48:56.971Z,1028.37
2019-03-21T06:49:56.990Z,1028.44
2019-03-21T06:50:57.006Z,1028.44
2019-03-21T06:51:57.025Z,1028.46
2019-03-21T06:52:57.043Z,1028.46
2019-03-21T06:53:57.065Z,1028.44
2019-03-21T06:54:59.567Z,1028.47
2019-03-21T06:55:57.097Z,1028.49
2019-03-21T06:56:57.115Z,1028.49
2019-03-21T06:57:57.135Z,1028.47
2019-03-21T06:58:57.153Z,1028.49
2019-03-21T06:59:57.172Z,1028.50
2019-03-21T07:00:57.192Z,1028.52
2019-03-21T07:01:57.206Z,1028.49
2019-03-21T07:02:57.225Z,1028.50
2019-03-21T07:04:06.591Z,1028.52
2019-03-21T07:04:57.261Z,1028.50
2019-03-21T07:05:57.280Z,1028.54
2019-03-21T07:07:07.541Z,1028.55
2019-03-21T07:07:57.316Z,1028.60
2019-03-21T07:08:57.340Z,1028.57
2019-03-21T07:09:57.353Z,1028.54
2019-03-21T07:10:58.350Z,1028.57
2019-03-21T07:11:57.413Z,1028.59
2019-03-21T07:12:57.468Z,1028.61
2019-03-21T07:13:57.474Z,1028.64
2019-03-21T07:14:57.469Z,1028.63
2019-03-21T07:15:57.535Z,1028.67
2019-03-21T07:17:00.690Z,1028.66
2019-03-21T07:17:57.535Z,1028.66
2019-03-21T07:18:57.547Z,1028.69
2019-03-21T07:19:57.540Z,1028.70
2019-03-21T07:20:57.556Z,1028.69
2019-03-21T07:21:57.576Z,1028.72
2019-03-21T07:22:57.592Z,1028.74
2019-03-21T07:23:57.613Z,1028.74
2019-03-21T07:24:57.629Z,1028.76
2019-03-21T07:25:57.650Z,1028.77
2019-03-21T07:26:57.665Z,1028.77
2019-03-21T07:27:57.684Z,1028.75
2019-03-21T07:28:57.703Z,1028.73
2019-03-21T07:29:57.721Z,1028.73
2019-03-21T07:30:57.740Z,1028.78
2019-03-21T07:31:57.761Z,1028.78
2019-03-21T07:32:57.776Z,1028.80
2019-03-21T07:33:57.798Z,1028.76
2019-03-21T07:34:57.815Z,1028.78
2019-03-21T07:35:57.835Z,1028.82
2019-03-21T07:36:57.853Z,1028.84
2019-03-21T07:37:57.874Z,1028.81
2019-03-21T07:38:57.886Z,1028.83
2019-03-21T07:39:57.906Z,1028.84
2019-03-21T07:40:57.929Z,1028.80
2019-03-21T07:41:57.951Z,1028.85
2019-03-21T07:42:57.960Z,1028.86
2019-03-21T07:43:57.985Z,1028.83
2019-03-21T07:44:58.001Z,1028.82
2019-03-21T07:45:58.020Z,1028.83
2019-03-21T07:46:58.035Z,1028.85
2019-03-21T07:47:58.056Z,1028.87
2019-03-21T07:48:58.076Z,1028.87
2019-03-21T07:49:58.105Z,1028.91
2019-03-21T07:50:58.115Z,1028.92
2019-03-21T07:51:58.129Z,1028.91
2019-03-21T07:52:58.151Z,1028.90
2019-03-21T07:53:58.169Z,1028.92
2019-03-21T07:54:58.186Z,1028.93
2019-03-21T07:55:58.204Z,1028.93
2019-03-21T07:56:58.224Z,1028.93
2019-03-21T07:57:59.449Z,1028.92
2019-03-21T07:58:58.261Z,1028.94
2019-03-21T07:59:58.278Z,1028.94
2019-03-21T08:00:58.298Z,1028.90
2019-03-21T08:01:58.316Z,1028.96
2019-03-21T08:02:58.337Z,1028.96
2019-03-21T08:03:58.354Z,1028.93
2019-03-21T08:04:58.370Z,1028.95
2019-03-21T08:05:58.391Z,1028.97
2019-03-21T08:06:58.409Z,1028.99
2019-03-21T08:07:58.429Z,1028.97
2019-03-21T08:08:58.449Z,1028.99
2019-03-21T08:09:58.466Z,1028.96
2019-03-21T08:10:58.484Z,1028.97
2019-03-21T08:11:58.503Z,1028.97
2019-03-21T08:12:58.525Z,1028.99
2019-03-21T08:13:58.543Z,1029.00
2019-03-21T08:14:58.558Z,1028.99
2019-03-21T08:15:58.577Z,1028.96
2019-03-21T08:16:58.599Z,1028.99
2019-03-21T08:17:58.620Z,1028.97
2019-03-21T08:18:58.639Z,1028.98
2019-03-21T08:19:58.654Z,1028.98
2019-03-21T08:20:59.995Z,1028.98
2019-03-21T08:21:58.691Z,1028.98
2019-03-21T08:22:58.708Z,1028.97
2019-03-21T08:23:58.730Z,1029.00
2019-03-21T08:24:58.750Z,1028.96
2019-03-21T08:25:58.767Z,1029.01
2019-03-21T08:26:58.784Z,1028.99
2019-03-21T08:27:58.806Z,1029.00
2019-03-21T08:28:58.823Z,1029.04
2019-03-21T08:29:58.840Z,1029.08
2019-03-21T08:30:58.859Z,1029.07
2019-03-21T08:31:58.882Z,1029.09
2019-03-21T08:32:58.898Z,1029.06
2019-03-21T08:33:58.917Z,1029.12
2019-03-21T08:34:58.936Z,1029.08
2019-03-21T08:35:58.955Z,1029.15
2019-03-21T08:36:58.975Z,1029.17
2019-03-21T08:37:58.995Z,1029.15
2019-03-21T08:38:59.014Z,1029.12
2019-03-21T08:39:59.030Z,1029.14
2019-03-21T08:40:59.053Z,1029.21
2019-03-21T08:41:59.071Z,1029.14
2019-03-21T08:42:59.088Z,1029.16
2019-03-21T08:43:59.109Z,1029.14
2019-03-21T08:44:59.127Z,1029.16
2019-03-21T08:45:59.144Z,1029.16
2019-03-21T08:46:59.165Z,1029.18
2019-03-21T08:47:59.192Z,1029.16
2019-03-21T08:48:59.205Z,1029.16
2019-03-21T08:49:59.224Z,1029.14
2019-03-21T08:51:07.783Z,1029.19
2019-03-21T08:51:59.271Z,1029.18
2019-03-21T08:52:59.348Z,1029.19
2019-03-21T08:53:59.339Z,1029.21
2019-03-21T08:54:59.351Z,1029.21
2019-03-21T08:55:59.411Z,1029.18
2019-03-21T08:56:59.410Z,1029.20
2019-03-21T08:57:59.412Z,1029.19
2019-03-21T08:58:59.403Z,1029.21
2019-03-21T08:59:59.432Z,1029.19
2019-03-21T09:00:59.435Z,1029.20
2019-03-21T09:01:59.455Z,1029.18
2019-03-21T09:02:59.475Z,1029.18
2019-03-21T09:03:59.490Z,1029.21
2019-03-21T09:04:59.907Z,1029.21
2019-03-21T09:05:59.530Z,1029.22
2019-03-21T09:06:59.550Z,1029.24
2019-03-21T09:07:59.573Z,1029.25
2019-03-21T09:08:59.590Z,1029.28
2019-03-21T09:09:59.608Z,1029.28
2019-03-21T09:10:59.628Z,1029.26
2019-03-21T09:11:59.648Z,1029.30
2019-03-21T09:12:59.666Z,1029.21
2019-03-21T09:13:59.686Z,1029.20
2019-03-21T09:14:59.706Z,1029.19
2019-03-21T09:15:59.724Z,1029.22
2019-03-21T09:16:59.749Z,1029.16
2019-03-21T09:17:59.766Z,1029.24
2019-03-21T09:18:59.783Z,1029.19
2019-03-21T09:19:59.805Z,1029.20
2019-03-21T09:20:59.823Z,1029.25
2019-03-21T09:21:59.843Z,1029.24
2019-03-21T09:22:59.861Z,1029.23
2019-03-21T09:23:59.885Z,1029.23
2019-03-21T09:24:59.904Z,1029.21
2019-03-21T09:25:59.923Z,1029.24
2019-03-21T09:26:59.943Z,1029.26
2019-03-21T09:28:02.865Z,1029.20
2019-03-21T09:28:59.981Z,1029.22
2019-03-21T09:30:00.004Z,1029.27
2019-03-21T09:31:00.021Z,1029.21
2019-03-21T09:32:00.042Z,1029.24
2019-03-21T09:33:00.061Z,1029.23
2019-03-21T09:34:00.083Z,1029.26
2019-03-21T09:35:00.170Z,1029.26
2019-03-21T09:36:00.122Z,1029.24
2019-03-21T09:37:00.142Z,1029.20
2019-03-21T09:38:00.160Z,1029.22
2019-03-21T09:39:00.180Z,1029.21
2019-03-21T09:40:00.334Z,1029.17
2019-03-21T09:41:00.219Z,1029.18
2019-03-21T09:42:00.240Z,1029.19
2019-03-21T09:43:02.854Z,1029.19
2019-03-21T09:44:00.334Z,1029.21
2019-03-21T09:45:00.449Z,1029.15
2019-03-21T09:46:00.322Z,1029.19
2019-03-21T09:47:00.340Z,1029.18
2019-03-21T09:48:00.360Z,1029.20
2019-03-21T09:49:00.380Z,1029.14
2019-03-21T09:50:00.436Z,1029.14
2019-03-21T09:51:00.418Z,1029.17
2019-03-21T09:52:00.491Z,1029.15
2019-03-21T09:53:00.459Z,1029.15
2019-03-21T09:54:09.335Z,1029.18
2019-03-21T09:55:00.499Z,1029.16
2019-03-21T09:56:01.226Z,1029.19
2019-03-21T09:57:00.556Z,1029.22
2019-03-21T09:58:00.560Z,1029.20
2019-03-21T09:59:00.578Z,1029.20
2019-03-21T10:00:00.603Z,1029.20
2019-03-21T10:01:00.621Z,1029.18
2019-03-21T10:02:00.639Z,1029.18
2019-03-21T10:03:00.659Z,1029.18
2019-03-21T10:04:00.680Z,1029.15
2019-03-21T10:05:00.700Z,1029.18
2019-03-21T10:06:00.770Z,1029.13
2019-03-21T10:07:00.738Z,1029.09
2019-03-21T10:08:00.759Z,1029.18
2019-03-21T10:09:00.778Z,1029.14
2019-03-21T10:10:00.799Z,1029.14
2019-03-21T10:11:00.817Z,1029.11
2019-03-21T10:12:00.837Z,1029.09
2019-03-21T10:13:00.858Z,1029.13
2019-03-21T10:14:00.880Z,1029.13
2019-03-21T10:15:00.898Z,1029.11
2019-03-21T10:16:00.916Z,1029.17
2019-03-21T10:17:00.939Z,1029.12
2019-03-21T10:18:00.961Z,1029.13
2019-03-21T10:19:00.979Z,1029.13
2019-03-21T10:20:01.004Z,1029.11
2019-03-21T10:21:01.019Z,1029.11
2019-03-21T10:22:01.039Z,1029.17
2019-03-21T10:23:01.055Z,1029.19
2019-03-21T10:24:01.077Z,1029.17
2019-03-21T10:25:01.097Z,1029.17
2019-03-21T10:26:01.118Z,1029.15
2019-03-21T10:27:01.144Z,1029.13
2019-03-21T10:28:01.197Z,1029.15
2019-03-21T10:29:01.221Z,1029.12
2019-03-21T10:30:01.223Z,1029.19
2019-03-21T10:31:01.313Z,1029.15
2019-03-21T10:32:01.298Z,1029.13
2019-03-21T10:33:01.291Z,1029.15
2019-03-21T10:34:01.309Z,1029.14
2019-03-21T10:35:01.304Z,1029.11
2019-03-21T10:36:01.319Z,1029.14
2019-03-21T10:37:01.372Z,1029.17
2019-03-21T10:38:01.361Z,1029.13
2019-03-21T10:39:01.379Z,1029.20
2019-03-21T10:40:01.402Z,1029.14
2019-03-21T10:41:01.420Z,1029.16
2019-03-21T10:42:01.439Z,1029.16
2019-03-21T10:43:01.461Z,1029.14
2019-03-21T10:44:01.483Z,1029.14
2019-03-21T10:45:01.500Z,1029.16
2019-03-21T10:46:01.521Z,1029.13
2019-03-21T10:47:01.541Z,1029.13
2019-03-21T10:48:01.561Z,1029.13
2019-03-21T10:49:01.584Z,1029.13
2019-03-21T10:50:01.605Z,1029.10
2019-03-21T10:51:01.626Z,1029.09
2019-03-21T10:52:01.642Z,1029.06
2019-03-21T10:53:01.667Z,1029.08
2019-03-21T10:54:01.685Z,1029.06
2019-03-21T10:55:01.704Z,1029.06
2019-03-21T10:56:01.726Z,1029.13
2019-03-21T10:57:01.747Z,1029.11
2019-03-21T10:58:01.766Z,1029.08
2019-03-21T10:59:01.786Z,1029.08
2019-03-21T11:00:02.265Z,1029.14
2019-03-21T11:01:01.827Z,1029.09
2019-03-21T11:02:07.264Z,1029.09
2019-03-21T11:03:01.866Z,1029.03
2019-03-21T11:04:01.890Z,1029.06
2019-03-21T11:05:01.910Z,1029.03
2019-03-21T11:06:01.931Z,1029.05
2019-03-21T11:07:01.961Z,1029.11
2019-03-21T11:08:01.970Z,1029.04
2019-03-21T11:09:01.990Z,1029.00
2019-03-21T11:10:02.021Z,1028.97
2019-03-21T11:11:02.033Z,1029.03
2019-03-21T11:12:02.054Z,1029.06
2019-03-21T11:13:02.074Z,1029.07
2019-03-21T11:14:02.094Z,1029.08
2019-03-21T11:15:02.114Z,1029.03
2019-03-21T11:16:02.136Z,1029.01
2019-03-21T11:17:02.156Z,1029.04
2019-03-21T11:18:02.176Z,1029.01
2019-03-21T11:19:02.197Z,1029.02
2019-03-21T11:20:02.216Z,1029.02
2019-03-21T11:21:02.236Z,1029.00
2019-03-21T11:22:06.293Z,1029.04
2019-03-21T11:23:02.277Z,1029.05
2019-03-21T11:24:02.303Z,1029.01
2019-03-21T11:25:02.325Z,1029.09
2019-03-21T11:26:02.343Z,1028.99
2019-03-21T11:27:02.359Z,1028.96
2019-03-21T11:28:02.380Z,1029.01
2019-03-21T11:29:02.401Z,1028.95
2019-03-21T11:30:02.421Z,1028.96
2019-03-21T11:31:02.442Z,1028.94
2019-03-21T11:32:02.460Z,1028.93
2019-03-21T11:33:02.481Z,1028.92
2019-03-21T11:34:02.502Z,1028.87
2019-03-21T11:35:02.523Z,1028.88
2019-03-21T11:36:02.541Z,1028.87
2019-03-21T11:37:02.569Z,1028.82
2019-03-21T11:38:02.584Z,1028.86
2019-03-21T11:39:02.602Z,1028.89
2019-03-21T11:40:02.625Z,1028.84
2019-03-21T11:41:02.660Z,1028.84
2019-03-21T11:42:02.678Z,1028.77
2019-03-21T11:43:02.705Z,1028.81
2019-03-21T11:44:02.706Z,1028.83
2019-03-21T11:45:02.730Z,1028.77
2019-03-21T11:46:02.756Z,1028.75
2019-03-21T11:47:02.772Z,1028.74
2019-03-21T11:48:02.787Z,1028.76
2019-03-21T11:49:02.821Z,1028.76
2019-03-21T11:50:02.842Z,1028.75
2019-03-21T11:51:02.856Z,1028.78
2019-03-21T11:52:02.871Z,1028.79
2019-03-21T11:53:02.892Z,1028.80
2019-03-21T11:54:02.912Z,1028.81
2019-03-21T11:55:02.933Z,1028.75
2019-03-21T11:56:02.965Z,1028.74
2019-03-21T11:57:02.973Z,1028.74
2019-03-21T11:58:02.996Z,1028.78
2019-03-21T11:59:03.014Z,1028.79
2019-03-21T12:00:03.123Z,1028.77
2019-03-21T12:01:03.120Z,1028.76
2019-03-21T12:02:03.120Z,1028.77
2019-03-21T12:03:04.226Z,1028.74
2019-03-21T12:04:03.179Z,1028.75
2019-03-21T12:05:03.199Z,1028.75
2019-03-21T12:06:03.175Z,1028.77